Long Beach /Daugherty Field/ Airport
KLGB : rendu visible

Aérodrome :











RETROUVEZ-NOUS SUR...

 
LOGIN :

S'inscrire | Disclaimer

   EN    FR    IT 

 









Légende :    VFR   VFR Marginal   IFR   IFR Intensif   IFR Très Intensif
Visi : 
Plafond : 
>= 8 km
>= 3000ft
5 à 8 km
1000 à 3000 ft
1500m à 5 km
500 à 1000 ft
800 à 1500m
200 à 500 ft
< 800m
< 200 ft
Symboles :   Orages  Brouillard  Fortes neiges  Fortes précipitations  Vent > 20 kt







- Altitude de l'aérodrome : 60 ft
- Code IATA : LGB


KLGB - Long Beach /Daugherty Field/

DERNIER METAR :
  • 151353Z 12003KT 1 3/4SM BR OVC002 21/18 A2988 RMK AO2 SLP116 T02060183

METARs EXPIRÉS :
  • 151336Z 00000KT 1 3/4SM R30/4500VP6000FT BR BKN002 OVC007 20/18 A2988 RMK AO2 T02000183
  • 151326Z 00000KT 5SM BR BKN004 20/18 A2988 RMK AO2 CIG 002V007 T02000178
  • 151314Z 12004KT 8SM SCT006 20/17 A2987 RMK AO2 T02000172
  • 151253Z AUTO 00000KT 6SM HZ CLR 21/18 A2987 RMK AO2 SLP114 T02060178
  • 151153Z AUTO 00000KT 7SM CLR 21/18 A2985 RMK AO2 SLP109 T02110183 10239 20211 55004

TAF KLGB
Valide du 15 à 12h jusqu'au 16 à 12h UTC


151222Z 1512/1612 VRB03KT 6SM BR SCT005 BKN200
FM151300 VRB03KT 2SM BR OVC003
FM151430 14003KT 3SM BR BKN006
FM151600 VRB03KT 6SM HZ FEW008 BKN200
FM151800 20008KT P6SM BKN200
FM152300 30008KT P6SM BKN200
FM160600 VRB03KT P6SM BKN012 BKN200
Pas de NOTAMs connus pour ce terrain.



MET'MAP, la Météo Aéronautique d'un coup d'oeil ! - Copyright ORBIFLY Décembre 2007 - Disclaimer

ORBIFLY MET'MAP TEAM :

Programmation & Développement : Alexandra Zaïnal
Conception & Développement : Baudouin d'Aumeries
Co-Programmation & Développement : Marc-Olivier Méhu
Soutien technique & logistique : Manuel Goepfert

Contact : metmap@orbifly.com




SOURCES & CREDITS :

   NOAA       Earth
Advisory